Terminal Aerodrome Forecast
Issued by NWS Buffalo, NY

Home | Current Version | Previous Version | Text Only | Print | Product List | Glossary On
Versions: 1 2 3 4 5 6 7 8 9 10 11 12 13 14 15 16 17 18 19 20 21 22 23 24 25 26 27 28 29 30
103
FTUS41 KBUF 060905 AAB
TAFBUF
TAF AMD
KBUF 060905Z 0609/0706 21009KT P6SM OVC070
     FM061200 22011KT P6SM VCSH BKN025
     FM061600 24013KT P6SM BKN035
     FM061800 24014G20KT P6SM BKN035
     FM062300 23013KT P6SM BKN070
     FM070400 24010G19KT P6SM BKN250=

USA.gov is the U.S. government's official web portal to all federal, state and local government web resources and services.